sensor_id;sensor_type;location;lat;lon;timestamp;P1;durP1;ratioP1;P2;durP2;ratioP2
49962;SDS011;36180;57.678;11.910;2023-02-22T00:00:36;3.28;;;1.60;;
49962;SDS011;36180;57.678;11.910;2023-02-22T00:03:10;3.30;;;1.90;;
49962;SDS011;36180;57.678;11.910;2023-02-22T00:05:39;2.95;;;1.80;;
49962;SDS011;36180;57.678;11.910;2023-02-22T00:08:09;2.75;;;1.92;;
49962;SDS011;36180;57.678;11.910;2023-02-22T00:10:36;2.90;;;2.10;;
49962;SDS011;36180;57.678;11.910;2023-02-22T00:13:04;3.13;;;1.95;;
49962;SDS011;36180;57.678;11.910;2023-02-22T00:15:33;3.30;;;2.17;;
49962;SDS011;36180;57.678;11.910;2023-02-22T00:18:00;2.47;;;1.77;;
49962;SDS011;36180;57.678;11.910;2023-02-22T00:20:29;3.22;;;1.52;;
49962;SDS011;36180;57.678;11.910;2023-02-22T00:22:56;2.03;;;1.70;;
49962;SDS011;36180;57.678;11.910;2023-02-22T00:25:25;3.58;;;2.15;;
49962;SDS011;36180;57.678;11.910;2023-02-22T00:27:52;2.38;;;1.95;;
49962;SDS011;36180;57.678;11.910;2023-02-22T00:30:21;3.28;;;1.88;;
49962;SDS011;36180;57.678;11.910;2023-02-22T00:32:52;2.00;;;1.60;;
49962;SDS011;36180;57.678;11.910;2023-02-22T00:35:21;4.20;;;2.00;;
49962;SDS011;36180;57.678;11.910;2023-02-22T00:37:53;2.15;;;1.67;;
49962;SDS011;36180;57.678;11.910;2023-02-22T00:40:22;2.72;;;1.65;;
49962;SDS011;36180;57.678;11.910;2023-02-22T00:42:50;2.63;;;1.60;;
49962;SDS011;36180;57.678;11.910;2023-02-22T00:45:18;3.03;;;1.58;;
49962;SDS011;36180;57.678;11.910;2023-02-22T00:47:47;5.45;;;1.40;;
49962;SDS011;36180;57.678;11.910;2023-02-22T00:50:14;2.58;;;1.80;;
49962;SDS011;36180;57.678;11.910;2023-02-22T00:52:43;2.38;;;2.00;;
49962;SDS011;36180;57.678;11.910;2023-02-22T00:55:14;2.97;;;1.83;;
49962;SDS011;36180;57.678;11.910;2023-02-22T00:57:42;3.28;;;1.90;;
49962;SDS011;36180;57.678;11.910;2023-02-22T01:00:15;2.22;;;1.70;;
49962;SDS011;36180;57.678;11.910;2023-02-22T01:02:44;4.20;;;1.92;;
49962;SDS011;36180;57.678;11.910;2023-02-22T01:05:15;2.25;;;1.55;;
49962;SDS011;36180;57.678;11.910;2023-02-22T01:07:44;3.70;;;1.90;;
49962;SDS011;36180;57.678;11.910;2023-02-22T01:10:16;2.45;;;1.73;;
49962;SDS011;36180;57.678;11.910;2023-02-22T01:12:46;2.00;;;1.55;;
49962;SDS011;36180;57.678;11.910;2023-02-22T01:15:14;3.08;;;1.73;;
49962;SDS011;36180;57.678;11.910;2023-02-22T01:17:46;2.45;;;1.60;;
49962;SDS011;36180;57.678;11.910;2023-02-22T01:20:14;3.42;;;1.65;;
49962;SDS011;36180;57.678;11.910;2023-02-22T01:22:42;1.77;;;1.52;;
49962;SDS011;36180;57.678;11.910;2023-02-22T01:25:11;2.83;;;1.70;;
49962;SDS011;36180;57.678;11.910;2023-02-22T01:27:44;2.38;;;1.52;;
49962;SDS011;36180;57.678;11.910;2023-02-22T01:30:12;2.30;;;1.40;;
49962;SDS011;36180;57.678;11.910;2023-02-22T01:32:40;2.33;;;1.73;;
49962;SDS011;36180;57.678;11.910;2023-02-22T01:35:12;3.83;;;1.70;;
49962;SDS011;36180;57.678;11.910;2023-02-22T01:37:43;2.72;;;1.50;;
49962;SDS011;36180;57.678;11.910;2023-02-22T01:40:14;2.22;;;1.50;;
49962;SDS011;36180;57.678;11.910;2023-02-22T01:42:44;1.80;;;1.52;;
49962;SDS011;36180;57.678;11.910;2023-02-22T01:48:12;2.65;;;1.98;;
49962;SDS011;36180;57.678;11.910;2023-02-22T01:50:46;4.00;;;1.70;;
49962;SDS011;36180;57.678;11.910;2023-02-22T01:53:18;3.03;;;1.70;;
49962;SDS011;36180;57.678;11.910;2023-02-22T01:55:47;2.05;;;1.48;;
49962;SDS011;36180;57.678;11.910;2023-02-22T01:58:15;2.00;;;1.30;;
49962;SDS011;36180;57.678;11.910;2023-02-22T02:00:44;1.95;;;1.60;;
49962;SDS011;36180;57.678;11.910;2023-02-22T02:03:13;2.08;;;1.55;;
49962;SDS011;36180;57.678;11.910;2023-02-22T02:05:42;4.97;;;1.83;;
49962;SDS011;36180;57.678;11.910;2023-02-22T02:08:13;3.28;;;1.75;;
49962;SDS011;36180;57.678;11.910;2023-02-22T02:10:45;2.38;;;1.67;;
49962;SDS011;36180;57.678;11.910;2023-02-22T02:13:15;2.80;;;1.88;;
49962;SDS011;36180;57.678;11.910;2023-02-22T02:15:42;2.85;;;1.85;;
49962;SDS011;36180;57.678;11.910;2023-02-22T02:18:10;2.20;;;1.58;;
49962;SDS011;36180;57.678;11.910;2023-02-22T02:20:41;3.28;;;1.75;;
49962;SDS011;36180;57.678;11.910;2023-02-22T02:23:33;2.58;;;1.75;;
49962;SDS011;36180;57.678;11.910;2023-02-22T02:29:37;1.88;;;1.70;;
49962;SDS011;36180;57.678;11.910;2023-02-22T02:32:36;2.65;;;1.70;;
49962;SDS011;36180;57.678;11.910;2023-02-22T02:35:09;2.38;;;1.58;;
49962;SDS011;36180;57.678;11.910;2023-02-22T02:37:41;3.22;;;1.52;;
49962;SDS011;36180;57.678;11.910;2023-02-22T02:40:16;2.17;;;1.50;;
49962;SDS011;36180;57.678;11.910;2023-02-22T02:42:50;2.08;;;1.52;;
49962;SDS011;36180;57.678;11.910;2023-02-22T02:45:22;2.65;;;1.65;;
49962;SDS011;36180;57.678;11.910;2023-02-22T02:47:55;2.08;;;1.73;;
49962;SDS011;36180;57.678;11.910;2023-02-22T02:50:24;2.10;;;1.60;;
49962;SDS011;36180;57.678;11.910;2023-02-22T02:52:53;3.50;;;2.08;;
49962;SDS011;36180;57.678;11.910;2023-02-22T02:55:25;1.92;;;1.67;;
49962;SDS011;36180;57.678;11.910;2023-02-22T02:57:53;3.30;;;1.83;;
49962;SDS011;36180;57.678;11.910;2023-02-22T03:00:22;2.13;;;1.55;;
49962;SDS011;36180;57.678;11.910;2023-02-22T03:03:00;2.25;;;1.70;;
49962;SDS011;36180;57.678;11.910;2023-02-22T03:08:40;1.60;;;1.30;;
49962;SDS011;36180;57.678;11.910;2023-02-22T03:11:11;2.15;;;1.63;;
49962;SDS011;36180;57.678;11.910;2023-02-22T03:13:47;2.80;;;1.73;;
49962;SDS011;36180;57.678;11.910;2023-02-22T03:16:20;1.95;;;1.60;;
49962;SDS011;36180;57.678;11.910;2023-02-22T03:18:53;2.08;;;1.48;;
49962;SDS011;36180;57.678;11.910;2023-02-22T03:21:28;3.13;;;1.92;;
49962;SDS011;36180;57.678;11.910;2023-02-22T03:23:59;2.53;;;1.65;;
49962;SDS011;36180;57.678;11.910;2023-02-22T03:26:34;2.17;;;1.70;;
49962;SDS011;36180;57.678;11.910;2023-02-22T03:29:06;3.42;;;1.70;;
49962;SDS011;36180;57.678;11.910;2023-02-22T03:31:38;2.10;;;1.60;;
49962;SDS011;36180;57.678;11.910;2023-02-22T03:34:10;2.50;;;1.50;;
49962;SDS011;36180;57.678;11.910;2023-02-22T03:36:41;2.20;;;1.50;;
49962;SDS011;36180;57.678;11.910;2023-02-22T03:39:13;2.50;;;1.70;;
49962;SDS011;36180;57.678;11.910;2023-02-22T03:41:44;2.42;;;1.58;;
49962;SDS011;36180;57.678;11.910;2023-02-22T03:44:20;3.05;;;1.98;;
49962;SDS011;36180;57.678;11.910;2023-02-22T03:46:52;2.00;;;1.60;;
49962;SDS011;36180;57.678;11.910;2023-02-22T03:49:25;3.75;;;1.63;;
49962;SDS011;36180;57.678;11.910;2023-02-22T03:51:55;2.15;;;1.67;;
49962;SDS011;36180;57.678;11.910;2023-02-22T03:54:24;2.65;;;1.70;;
49962;SDS011;36180;57.678;11.910;2023-02-22T03:56:52;1.67;;;1.40;;
49962;SDS011;36180;57.678;11.910;2023-02-22T03:59:21;2.60;;;1.70;;
49962;SDS011;36180;57.678;11.910;2023-02-22T04:01:50;2.65;;;1.63;;
49962;SDS011;36180;57.678;11.910;2023-02-22T04:04:17;2.85;;;1.73;;
49962;SDS011;36180;57.678;11.910;2023-02-22T04:06:48;2.63;;;1.77;;
49962;SDS011;36180;57.678;11.910;2023-02-22T04:09:16;3.72;;;1.92;;
49962;SDS011;36180;57.678;11.910;2023-02-22T04:11:43;2.40;;;1.83;;
49962;SDS011;36180;57.678;11.910;2023-02-22T04:14:11;2.22;;;1.80;;
49962;SDS011;36180;57.678;11.910;2023-02-22T04:16:38;4.75;;;1.80;;
49962;SDS011;36180;57.678;11.910;2023-02-22T04:19:08;1.75;;;1.65;;
49962;SDS011;36180;57.678;11.910;2023-02-22T04:21:37;2.03;;;1.70;;
49962;SDS011;36180;57.678;11.910;2023-02-22T04:24:09;2.65;;;1.60;;
49962;SDS011;36180;57.678;11.910;2023-02-22T04:26:37;2.15;;;1.70;;
49962;SDS011;36180;57.678;11.910;2023-02-22T04:29:05;2.33;;;1.70;;
49962;SDS011;36180;57.678;11.910;2023-02-22T04:31:36;2.10;;;1.60;;
49962;SDS011;36180;57.678;11.910;2023-02-22T04:34:04;3.35;;;1.85;;
49962;SDS011;36180;57.678;11.910;2023-02-22T04:36:34;2.17;;;1.70;;
49962;SDS011;36180;57.678;11.910;2023-02-22T04:39:02;1.95;;;1.50;;
49962;SDS011;36180;57.678;11.910;2023-02-22T04:41:31;2.40;;;1.65;;
49962;SDS011;36180;57.678;11.910;2023-02-22T04:43:59;2.60;;;1.80;;
49962;SDS011;36180;57.678;11.910;2023-02-22T04:46:27;2.50;;;1.75;;
49962;SDS011;36180;57.678;11.910;2023-02-22T04:48:55;3.40;;;2.00;;
49962;SDS011;36180;57.678;11.910;2023-02-22T04:51:25;2.15;;;1.70;;
49962;SDS011;36180;57.678;11.910;2023-02-22T04:53:58;2.58;;;1.80;;
49962;SDS011;36180;57.678;11.910;2023-02-22T04:56:26;2.78;;;1.73;;
49962;SDS011;36180;57.678;11.910;2023-02-22T04:58:54;2.33;;;1.83;;
49962;SDS011;36180;57.678;11.910;2023-02-22T05:01:22;5.07;;;1.77;;
49962;SDS011;36180;57.678;11.910;2023-02-22T05:03:49;2.50;;;1.73;;
49962;SDS011;36180;57.678;11.910;2023-02-22T05:06:16;3.08;;;1.88;;
49962;SDS011;36180;57.678;11.910;2023-02-22T05:08:43;2.28;;;1.65;;
49962;SDS011;36180;57.678;11.910;2023-02-22T05:11:10;2.38;;;1.60;;
49962;SDS011;36180;57.678;11.910;2023-02-22T05:13:37;2.63;;;1.90;;
49962;SDS011;36180;57.678;11.910;2023-02-22T05:16:06;2.40;;;1.80;;
49962;SDS011;36180;57.678;11.910;2023-02-22T05:18:33;3.53;;;1.70;;
49962;SDS011;36180;57.678;11.910;2023-02-22T05:21:00;2.17;;;1.75;;
49962;SDS011;36180;57.678;11.910;2023-02-22T05:23:27;1.80;;;1.50;;
49962;SDS011;36180;57.678;11.910;2023-02-22T05:25:54;4.38;;;2.30;;
49962;SDS011;36180;57.678;11.910;2023-02-22T05:28:22;2.85;;;1.90;;
49962;SDS011;36180;57.678;11.910;2023-02-22T05:30:49;3.47;;;1.90;;
49962;SDS011;36180;57.678;11.910;2023-02-22T05:33:18;2.47;;;2.00;;
49962;SDS011;36180;57.678;11.910;2023-02-22T05:35:45;2.47;;;1.90;;
49962;SDS011;36180;57.678;11.910;2023-02-22T05:38:12;3.35;;;2.00;;
49962;SDS011;36180;57.678;11.910;2023-02-22T05:40:40;6.72;;;2.00;;
49962;SDS011;36180;57.678;11.910;2023-02-22T05:43:08;3.92;;;2.42;;
49962;SDS011;36180;57.678;11.910;2023-02-22T05:45:35;2.65;;;2.15;;
49962;SDS011;36180;57.678;11.910;2023-02-22T05:48:03;3.85;;;2.03;;
49962;SDS011;36180;57.678;11.910;2023-02-22T05:50:32;3.70;;;2.10;;
49962;SDS011;36180;57.678;11.910;2023-02-22T05:52:59;2.58;;;1.85;;
49962;SDS011;36180;57.678;11.910;2023-02-22T05:55:27;2.60;;;1.98;;
49962;SDS011;36180;57.678;11.910;2023-02-22T05:57:54;3.65;;;2.03;;
49962;SDS011;36180;57.678;11.910;2023-02-22T06:00:22;3.70;;;1.80;;
49962;SDS011;36180;57.678;11.910;2023-02-22T06:02:54;2.83;;;2.10;;
49962;SDS011;36180;57.678;11.910;2023-02-22T06:05:21;3.58;;;1.77;;
49962;SDS011;36180;57.678;11.910;2023-02-22T06:07:50;2.40;;;1.85;;
49962;SDS011;36180;57.678;11.910;2023-02-22T06:10:18;3.22;;;2.08;;
49962;SDS011;36180;57.678;11.910;2023-02-22T06:12:45;4.53;;;1.92;;
49962;SDS011;36180;57.678;11.910;2023-02-22T06:15:13;4.57;;;1.98;;
49962;SDS011;36180;57.678;11.910;2023-02-22T06:17:40;5.10;;;2.30;;
49962;SDS011;36180;57.678;11.910;2023-02-22T06:20:08;3.08;;;1.80;;
49962;SDS011;36180;57.678;11.910;2023-02-22T06:22:35;3.05;;;2.30;;
49962;SDS011;36180;57.678;11.910;2023-02-22T06:25:07;3.58;;;1.90;;
49962;SDS011;36180;57.678;11.910;2023-02-22T06:27:34;5.43;;;1.98;;
49962;SDS011;36180;57.678;11.910;2023-02-22T06:30:02;7.20;;;1.90;;
49962;SDS011;36180;57.678;11.910;2023-02-22T06:32:29;2.88;;;1.80;;
49962;SDS011;36180;57.678;11.910;2023-02-22T06:34:57;3.88;;;1.88;;
49962;SDS011;36180;57.678;11.910;2023-02-22T06:37:24;4.95;;;1.90;;
49962;SDS011;36180;57.678;11.910;2023-02-22T06:39:51;2.92;;;2.20;;
49962;SDS011;36180;57.678;11.910;2023-02-22T06:42:19;2.80;;;1.85;;
49962;SDS011;36180;57.678;11.910;2023-02-22T06:44:47;2.78;;;1.83;;
49962;SDS011;36180;57.678;11.910;2023-02-22T06:47:14;3.15;;;1.77;;
49962;SDS011;36180;57.678;11.910;2023-02-22T06:49:41;3.08;;;2.00;;
49962;SDS011;36180;57.678;11.910;2023-02-22T06:52:08;7.05;;;2.47;;
49962;SDS011;36180;57.678;11.910;2023-02-22T06:54:36;4.30;;;2.33;;
49962;SDS011;36180;57.678;11.910;2023-02-22T06:57:04;5.03;;;1.90;;
49962;SDS011;36180;57.678;11.910;2023-02-22T06:59:34;3.42;;;2.15;;
49962;SDS011;36180;57.678;11.910;2023-02-22T07:02:01;2.75;;;2.20;;
49962;SDS011;36180;57.678;11.910;2023-02-22T07:04:28;6.32;;;2.33;;
49962;SDS011;36180;57.678;11.910;2023-02-22T07:06:55;3.75;;;2.00;;
49962;SDS011;36180;57.678;11.910;2023-02-22T07:09:22;2.58;;;2.13;;
49962;SDS011;36180;57.678;11.910;2023-02-22T07:11:49;2.95;;;2.00;;
49962;SDS011;36180;57.678;11.910;2023-02-22T07:14:16;3.08;;;2.17;;
49962;SDS011;36180;57.678;11.910;2023-02-22T07:16:45;2.65;;;1.90;;
49962;SDS011;36180;57.678;11.910;2023-02-22T07:19:12;7.05;;;1.90;;
49962;SDS011;36180;57.678;11.910;2023-02-22T07:21:39;4.00;;;1.88;;
49962;SDS011;36180;57.678;11.910;2023-02-22T07:24:07;3.47;;;2.40;;
49962;SDS011;36180;57.678;11.910;2023-02-22T07:26:37;3.10;;;2.30;;
49962;SDS011;36180;57.678;11.910;2023-02-22T07:29:04;3.63;;;1.90;;
49962;SDS011;36180;57.678;11.910;2023-02-22T07:31:33;3.40;;;2.50;;
49962;SDS011;36180;57.678;11.910;2023-02-22T07:34:02;3.38;;;2.30;;
49962;SDS011;36180;57.678;11.910;2023-02-22T07:36:29;3.13;;;2.20;;
49962;SDS011;36180;57.678;11.910;2023-02-22T07:38:56;3.45;;;2.03;;
49962;SDS011;36180;57.678;11.910;2023-02-22T07:41:24;3.85;;;2.10;;
49962;SDS011;36180;57.678;11.910;2023-02-22T07:43:51;4.05;;;2.30;;
49962;SDS011;36180;57.678;11.910;2023-02-22T07:46:18;6.20;;;2.15;;
49962;SDS011;36180;57.678;11.910;2023-02-22T07:48:45;3.42;;;1.95;;
49962;SDS011;36180;57.678;11.910;2023-02-22T07:51:14;3.75;;;2.17;;
49962;SDS011;36180;57.678;11.910;2023-02-22T07:53:42;4.40;;;2.20;;
49962;SDS011;36180;57.678;11.910;2023-02-22T07:56:09;4.97;;;2.20;;
49962;SDS011;36180;57.678;11.910;2023-02-22T07:58:36;5.00;;;1.77;;
49962;SDS011;36180;57.678;11.910;2023-02-22T08:01:03;3.92;;;2.40;;
49962;SDS011;36180;57.678;11.910;2023-02-22T08:03:31;5.60;;;2.22;;
49962;SDS011;36180;57.678;11.910;2023-02-22T08:06:00;5.38;;;2.38;;
49962;SDS011;36180;57.678;11.910;2023-02-22T08:08:29;4.00;;;2.40;;
49962;SDS011;36180;57.678;11.910;2023-02-22T08:10:56;4.70;;;2.60;;
49962;SDS011;36180;57.678;11.910;2023-02-22T08:13:23;3.13;;;2.20;;
49962;SDS011;36180;57.678;11.910;2023-02-22T08:15:51;3.75;;;2.70;;
49962;SDS011;36180;57.678;11.910;2023-02-22T08:18:20;4.22;;;2.05;;
49962;SDS011;36180;57.678;11.910;2023-02-22T08:20:48;3.53;;;2.20;;
49962;SDS011;36180;57.678;11.910;2023-02-22T08:23:17;3.15;;;2.28;;
49962;SDS011;36180;57.678;11.910;2023-02-22T08:25:48;3.00;;;2.15;;
49962;SDS011;36180;57.678;11.910;2023-02-22T08:28:15;3.08;;;2.15;;
49962;SDS011;36180;57.678;11.910;2023-02-22T08:30:45;3.40;;;2.15;;
49962;SDS011;36180;57.678;11.910;2023-02-22T08:33:13;3.47;;;2.60;;
49962;SDS011;36180;57.678;11.910;2023-02-22T08:35:43;4.65;;;2.20;;
49962;SDS011;36180;57.678;11.910;2023-02-22T08:38:16;4.43;;;2.78;;
49962;SDS011;36180;57.678;11.910;2023-02-22T08:40:46;4.15;;;2.47;;
49962;SDS011;36180;57.678;11.910;2023-02-22T08:43:18;3.55;;;2.20;;
49962;SDS011;36180;57.678;11.910;2023-02-22T08:45:49;5.93;;;2.22;;
49962;SDS011;36180;57.678;11.910;2023-02-22T08:48:16;3.70;;;2.33;;
49962;SDS011;36180;57.678;11.910;2023-02-22T08:50:44;5.35;;;2.58;;
49962;SDS011;36180;57.678;11.910;2023-02-22T08:53:11;13.40;;;2.75;;
49962;SDS011;36180;57.678;11.910;2023-02-22T08:55:40;6.57;;;2.90;;
49962;SDS011;36180;57.678;11.910;2023-02-22T08:58:09;3.80;;;2.63;;
49962;SDS011;36180;57.678;11.910;2023-02-22T09:00:37;4.78;;;2.58;;
49962;SDS011;36180;57.678;11.910;2023-02-22T09:03:05;4.15;;;2.22;;
49962;SDS011;36180;57.678;11.910;2023-02-22T09:05:33;3.63;;;2.38;;
49962;SDS011;36180;57.678;11.910;2023-02-22T09:08:00;4.40;;;2.60;;
49962;SDS011;36180;57.678;11.910;2023-02-22T09:10:28;4.20;;;2.08;;
49962;SDS011;36180;57.678;11.910;2023-02-22T09:12:56;6.28;;;2.20;;
49962;SDS011;36180;57.678;11.910;2023-02-22T09:15:26;6.32;;;2.63;;
49962;SDS011;36180;57.678;11.910;2023-02-22T09:17:53;3.22;;;2.17;;
49962;SDS011;36180;57.678;11.910;2023-02-22T09:20:21;6.85;;;2.45;;
49962;SDS011;36180;57.678;11.910;2023-02-22T09:22:49;6.85;;;2.63;;
49962;SDS011;36180;57.678;11.910;2023-02-22T09:25:17;4.13;;;2.50;;
49962;SDS011;36180;57.678;11.910;2023-02-22T09:27:45;7.85;;;2.60;;
49962;SDS011;36180;57.678;11.910;2023-02-22T09:30:17;6.47;;;2.33;;
49962;SDS011;36180;57.678;11.910;2023-02-22T09:32:49;4.43;;;2.40;;
49962;SDS011;36180;57.678;11.910;2023-02-22T09:35:17;9.35;;;2.50;;
49962;SDS011;36180;57.678;11.910;2023-02-22T09:37:45;3.17;;;2.22;;
49962;SDS011;36180;57.678;11.910;2023-02-22T09:40:14;5.40;;;2.50;;
49962;SDS011;36180;57.678;11.910;2023-02-22T09:42:52;6.03;;;2.70;;
49962;SDS011;36180;57.678;11.910;2023-02-22T09:45:33;6.78;;;2.60;;
49962;SDS011;36180;57.678;11.910;2023-02-22T09:48:05;3.90;;;1.95;;
49962;SDS011;36180;57.678;11.910;2023-02-22T09:50:33;2.78;;;1.92;;
49962;SDS011;36180;57.678;11.910;2023-02-22T09:53:04;4.05;;;2.30;;
49962;SDS011;36180;57.678;11.910;2023-02-22T09:55:32;6.38;;;2.28;;
49962;SDS011;36180;57.678;11.910;2023-02-22T09:58:02;4.78;;;2.00;;
49962;SDS011;36180;57.678;11.910;2023-02-22T10:00:35;4.15;;;2.13;;
49962;SDS011;36180;57.678;11.910;2023-02-22T10:03:08;5.10;;;2.45;;
49962;SDS011;36180;57.678;11.910;2023-02-22T10:05:43;5.72;;;2.35;;
49962;SDS011;36180;57.678;11.910;2023-02-22T10:08:13;3.97;;;2.13;;
49962;SDS011;36180;57.678;11.910;2023-02-22T10:10:44;2.25;;;2.05;;
49962;SDS011;36180;57.678;11.910;2023-02-22T10:13:19;4.38;;;1.98;;
49962;SDS011;36180;57.678;11.910;2023-02-22T10:15:54;7.70;;;2.10;;
49962;SDS011;36180;57.678;11.910;2023-02-22T10:21:33;5.28;;;2.05;;
49962;SDS011;36180;57.678;11.910;2023-02-22T10:24:16;3.47;;;2.13;;
49962;SDS011;36180;57.678;11.910;2023-02-22T10:26:51;4.03;;;2.17;;
49962;SDS011;36180;57.678;11.910;2023-02-22T10:29:22;2.95;;;2.15;;
49962;SDS011;36180;57.678;11.910;2023-02-22T10:31:57;3.13;;;2.10;;
49962;SDS011;36180;57.678;11.910;2023-02-22T10:34:27;3.63;;;2.38;;
49962;SDS011;36180;57.678;11.910;2023-02-22T10:36:59;7.25;;;2.28;;
49962;SDS011;36180;57.678;11.910;2023-02-22T10:39:31;4.00;;;1.98;;
49962;SDS011;36180;57.678;11.910;2023-02-22T10:42:00;3.35;;;2.10;;
49962;SDS011;36180;57.678;11.910;2023-02-22T10:44:31;5.50;;;2.13;;
49962;SDS011;36180;57.678;11.910;2023-02-22T10:46:58;4.43;;;2.05;;
49962;SDS011;36180;57.678;11.910;2023-02-22T10:49:26;5.38;;;2.15;;
49962;SDS011;36180;57.678;11.910;2023-02-22T10:51:56;3.22;;;2.13;;
49962;SDS011;36180;57.678;11.910;2023-02-22T10:54:27;4.80;;;2.30;;
49962;SDS011;36180;57.678;11.910;2023-02-22T10:56:57;4.28;;;2.13;;
49962;SDS011;36180;57.678;11.910;2023-02-22T10:59:29;3.08;;;1.80;;
49962;SDS011;36180;57.678;11.910;2023-02-22T11:01:58;3.17;;;2.40;;
49962;SDS011;36180;57.678;11.910;2023-02-22T11:04:25;3.45;;;2.03;;
49962;SDS011;36180;57.678;11.910;2023-02-22T11:07:07;3.10;;;2.10;;
49962;SDS011;36180;57.678;11.910;2023-02-22T11:12:15;6.32;;;1.90;;
49962;SDS011;36180;57.678;11.910;2023-02-22T11:14:44;4.70;;;1.92;;
49962;SDS011;36180;57.678;11.910;2023-02-22T11:17:12;4.60;;;1.73;;
49962;SDS011;36180;57.678;11.910;2023-02-22T11:19:45;5.05;;;1.98;;
49962;SDS011;36180;57.678;11.910;2023-02-22T11:22:19;6.13;;;1.90;;
49962;SDS011;36180;57.678;11.910;2023-02-22T11:24:48;3.60;;;1.75;;
49962;SDS011;36180;57.678;11.910;2023-02-22T11:27:25;3.70;;;2.20;;
49962;SDS011;36180;57.678;11.910;2023-02-22T11:30:09;6.93;;;1.80;;
49962;SDS011;36180;57.678;11.910;2023-02-22T11:32:46;3.90;;;1.90;;
49962;SDS011;36180;57.678;11.910;2023-02-22T11:35:19;6.00;;;1.92;;
49962;SDS011;36180;57.678;11.910;2023-02-22T11:38:09;5.00;;;1.83;;
49962;SDS011;36180;57.678;11.910;2023-02-22T11:40:45;3.35;;;1.80;;
49962;SDS011;36180;57.678;11.910;2023-02-22T11:43:14;4.28;;;1.88;;
49962;SDS011;36180;57.678;11.910;2023-02-22T11:45:58;7.45;;;2.15;;
49962;SDS011;36180;57.678;11.910;2023-02-22T11:48:29;2.70;;;1.92;;
49962;SDS011;36180;57.678;11.910;2023-02-22T11:51:13;3.83;;;1.90;;
49962;SDS011;36180;57.678;11.910;2023-02-22T11:53:55;3.55;;;1.95;;
49962;SDS011;36180;57.678;11.910;2023-02-22T11:59:09;6.43;;;1.83;;
49962;SDS011;36180;57.678;11.910;2023-02-22T12:01:40;5.32;;;2.20;;
49962;SDS011;36180;57.678;11.910;2023-02-22T12:07:25;5.70;;;2.03;;
49962;SDS011;36180;57.678;11.910;2023-02-22T12:10:01;4.93;;;1.67;;
49962;SDS011;36180;57.678;11.910;2023-02-22T12:12:40;5.80;;;1.60;;
49962;SDS011;36180;57.678;11.910;2023-02-22T12:15:17;3.78;;;1.80;;
49962;SDS011;36180;57.678;11.910;2023-02-22T12:17:51;3.35;;;2.00;;
49962;SDS011;36180;57.678;11.910;2023-02-22T12:20:22;4.63;;;2.10;;
49962;SDS011;36180;57.678;11.910;2023-02-22T12:22:58;9.70;;;2.50;;
49962;SDS011;36180;57.678;11.910;2023-02-22T12:25:30;6.97;;;2.05;;
49962;SDS011;36180;57.678;11.910;2023-02-22T12:28:00;3.50;;;1.88;;
49962;SDS011;36180;57.678;11.910;2023-02-22T12:30:36;5.10;;;2.00;;
49962;SDS011;36180;57.678;11.910;2023-02-22T12:33:17;4.03;;;1.77;;
49962;SDS011;36180;57.678;11.910;2023-02-22T12:35:48;3.47;;;2.00;;
49962;SDS011;36180;57.678;11.910;2023-02-22T12:38:18;3.83;;;1.88;;
49962;SDS011;36180;57.678;11.910;2023-02-22T12:40:51;2.13;;;1.58;;
49962;SDS011;36180;57.678;11.910;2023-02-22T12:43:23;2.55;;;1.80;;
49962;SDS011;36180;57.678;11.910;2023-02-22T12:45:56;5.13;;;1.98;;
49962;SDS011;36180;57.678;11.910;2023-02-22T12:48:34;4.13;;;1.80;;
49962;SDS011;36180;57.678;11.910;2023-02-22T12:51:09;4.25;;;1.63;;
49962;SDS011;36180;57.678;11.910;2023-02-22T12:53:43;2.33;;;1.70;;
49962;SDS011;36180;57.678;11.910;2023-02-22T12:56:19;6.40;;;1.73;;
49962;SDS011;36180;57.678;11.910;2023-02-22T12:58:50;2.80;;;1.83;;
49962;SDS011;36180;57.678;11.910;2023-02-22T13:01:21;3.08;;;1.58;;
49962;SDS011;36180;57.678;11.910;2023-02-22T13:03:51;4.57;;;1.80;;
49962;SDS011;36180;57.678;11.910;2023-02-22T13:06:23;6.15;;;2.10;;
49962;SDS011;36180;57.678;11.910;2023-02-22T13:08:59;5.43;;;2.00;;
49962;SDS011;36180;57.678;11.910;2023-02-22T13:11:37;4.65;;;1.73;;
49962;SDS011;36180;57.678;11.910;2023-02-22T13:17:02;6.45;;;1.70;;
49962;SDS011;36180;57.678;11.910;2023-02-22T13:19:37;3.85;;;1.65;;
49962;SDS011;36180;57.678;11.910;2023-02-22T13:22:08;3.95;;;1.90;;
49962;SDS011;36180;57.678;11.910;2023-02-22T13:24:42;1.75;;;1.38;;
49962;SDS011;36180;57.678;11.910;2023-02-22T13:29:52;6.45;;;2.03;;
49962;SDS011;36180;57.678;11.910;2023-02-22T13:32:27;4.47;;;2.42;;
49962;SDS011;36180;57.678;11.910;2023-02-22T13:35:11;4.45;;;1.95;;
49962;SDS011;36180;57.678;11.910;2023-02-22T13:40:54;3.92;;;2.08;;
49962;SDS011;36180;57.678;11.910;2023-02-22T13:43:50;8.35;;;2.00;;
49962;SDS011;36180;57.678;11.910;2023-02-22T13:46:43;2.70;;;1.42;;
49962;SDS011;36180;57.678;11.910;2023-02-22T13:49:32;7.68;;;1.75;;
49962;SDS011;36180;57.678;11.910;2023-02-22T13:52:20;2.22;;;1.92;;
49962;SDS011;36180;57.678;11.910;2023-02-22T13:54:50;5.13;;;1.88;;
49962;SDS011;36180;57.678;11.910;2023-02-22T13:57:21;4.20;;;1.75;;
49962;SDS011;36180;57.678;11.910;2023-02-22T14:02:57;3.03;;;1.92;;
49962;SDS011;36180;57.678;11.910;2023-02-22T14:14:16;4.13;;;2.30;;
49962;SDS011;36180;57.678;11.910;2023-02-22T14:16:45;4.47;;;1.83;;
49962;SDS011;36180;57.678;11.910;2023-02-22T14:22:47;3.08;;;1.63;;
49962;SDS011;36180;57.678;11.910;2023-02-22T14:25:33;6.03;;;1.83;;
49962;SDS011;36180;57.678;11.910;2023-02-22T14:28:02;3.28;;;1.80;;
49962;SDS011;36180;57.678;11.910;2023-02-22T14:30:31;4.30;;;1.80;;
49962;SDS011;36180;57.678;11.910;2023-02-22T14:33:02;2.60;;;1.60;;
49962;SDS011;36180;57.678;11.910;2023-02-22T14:35:31;5.13;;;1.85;;
49962;SDS011;36180;57.678;11.910;2023-02-22T14:38:03;5.38;;;1.90;;
49962;SDS011;36180;57.678;11.910;2023-02-22T14:40:39;3.65;;;1.88;;
49962;SDS011;36180;57.678;11.910;2023-02-22T14:43:07;7.20;;;2.13;;
49962;SDS011;36180;57.678;11.910;2023-02-22T14:45:38;7.30;;;2.03;;
49962;SDS011;36180;57.678;11.910;2023-02-22T14:48:15;4.18;;;1.67;;
49962;SDS011;36180;57.678;11.910;2023-02-22T14:50:50;5.90;;;2.13;;
49962;SDS011;36180;57.678;11.910;2023-02-22T14:53:21;4.38;;;1.60;;
49962;SDS011;36180;57.678;11.910;2023-02-22T14:55:51;4.68;;;1.63;;
49962;SDS011;36180;57.678;11.910;2023-02-22T14:58:22;2.53;;;1.75;;
49962;SDS011;36180;57.678;11.910;2023-02-22T15:00:51;5.05;;;2.13;;
49962;SDS011;36180;57.678;11.910;2023-02-22T15:03:26;6.32;;;2.15;;
49962;SDS011;36180;57.678;11.910;2023-02-22T15:06:02;6.78;;;2.03;;
49962;SDS011;36180;57.678;11.910;2023-02-22T15:08:30;4.25;;;2.28;;
49962;SDS011;36180;57.678;11.910;2023-02-22T15:10:58;6.65;;;1.95;;
49962;SDS011;36180;57.678;11.910;2023-02-22T15:13:27;5.10;;;2.10;;
49962;SDS011;36180;57.678;11.910;2023-02-22T15:15:57;5.22;;;1.98;;
49962;SDS011;36180;57.678;11.910;2023-02-22T15:18:27;3.05;;;1.73;;
49962;SDS011;36180;57.678;11.910;2023-02-22T15:20:58;7.30;;;2.05;;
49962;SDS011;36180;57.678;11.910;2023-02-22T15:23:38;3.15;;;1.88;;
49962;SDS011;36180;57.678;11.910;2023-02-22T15:26:07;5.50;;;1.85;;
49962;SDS011;36180;57.678;11.910;2023-02-22T15:28:42;4.50;;;1.80;;
49962;SDS011;36180;57.678;11.910;2023-02-22T15:31:14;3.95;;;2.00;;
49962;SDS011;36180;57.678;11.910;2023-02-22T15:36:12;5.13;;;1.80;;
49962;SDS011;36180;57.678;11.910;2023-02-22T15:38:46;2.55;;;2.08;;
49962;SDS011;36180;57.678;11.910;2023-02-22T15:41:19;3.92;;;1.83;;